createdAt,value
2017-03-25T00:07:27.795Z,10
2017-03-25T00:17:27.815Z,10
2017-03-25T00:27:27.474Z,14
2017-03-25T00:37:27.744Z,11
2017-03-25T00:47:28.358Z,9
2017-03-25T00:57:27.516Z,13
2017-03-25T01:07:27.450Z,11
2017-03-25T01:17:28.493Z,10
2017-03-25T01:27:27.773Z,11
2017-03-25T01:37:28.302Z,9
2017-03-25T01:47:29.626Z,14
2017-03-25T01:57:27.420Z,10
2017-03-25T02:07:27.543Z,10
2017-03-25T02:17:27.508Z,15
2017-03-25T02:27:27.390Z,10
2017-03-25T02:37:27.361Z,13
2017-03-25T02:47:27.509Z,10
2017-03-25T02:57:27.542Z,15
2017-03-25T03:07:27.431Z,10
2017-03-25T03:17:27.430Z,11
2017-03-25T03:27:27.473Z,15
2017-03-25T03:37:27.346Z,11
2017-03-25T03:47:27.433Z,18
2017-03-25T03:57:27.390Z,14
2017-03-25T04:07:27.298Z,16
2017-03-25T04:17:27.390Z,15
2017-03-25T04:27:27.369Z,21
2017-03-25T04:37:27.354Z,18
2017-03-25T04:47:27.349Z,17
2017-03-25T04:57:27.289Z,18
2017-03-25T05:07:27.286Z,16
2017-03-25T05:17:27.384Z,19
2017-03-25T05:27:27.349Z,22
2017-03-25T05:37:27.427Z,20
2017-03-25T05:47:27.352Z,21
2017-03-25T05:57:27.318Z,21
2017-03-25T06:07:27.401Z,22
2017-03-25T06:17:27.284Z,19
2017-03-25T06:27:27.352Z,19
2017-03-25T06:37:27.372Z,22
2017-03-25T06:47:27.285Z,21
2017-03-25T06:57:27.371Z,20
2017-03-25T07:07:27.359Z,18
2017-03-25T07:17:27.286Z,16
2017-03-25T07:27:27.282Z,17
2017-03-25T07:37:27.346Z,18
2017-03-25T07:47:27.298Z,14
2017-03-25T07:57:27.318Z,15
2017-03-25T08:07:27.291Z,12
2017-03-25T08:17:27.265Z,12
2017-03-25T08:27:27.237Z,11
2017-03-25T08:37:27.271Z,9
2017-03-25T08:47:27.207Z,12
2017-03-25T08:57:27.316Z,8
2017-03-25T09:07:27.319Z,8
2017-03-25T09:17:27.340Z,10
2017-03-25T09:27:27.479Z,8
2017-03-25T09:37:43.547Z,9
2017-03-25T09:47:27.389Z,12
2017-03-25T09:57:27.272Z,10
2017-03-25T10:07:27.319Z,10
2017-03-25T10:17:27.378Z,12
2017-03-25T10:27:27.366Z,12
2017-03-25T10:37:27.357Z,10
2017-03-25T10:47:27.295Z,9
2017-03-25T10:57:27.399Z,10
2017-03-25T11:07:27.395Z,9
2017-03-25T11:17:27.242Z,7
2017-03-25T11:27:27.200Z,11
2017-03-25T11:37:27.330Z,10
2017-03-25T11:47:27.639Z,7
2017-03-25T11:57:27.543Z,8
2017-03-25T12:07:27.407Z,4
2017-03-25T12:17:27.482Z,4
2017-03-25T12:27:28.443Z,3
2017-03-25T12:37:27.416Z,3
2017-03-25T12:47:27.378Z,4
2017-03-25T12:57:27.443Z,2
2017-03-25T13:07:27.555Z,2
2017-03-25T13:17:27.338Z,2
2017-03-25T13:27:27.361Z,3
2017-03-25T13:37:27.526Z,3
2017-03-25T13:47:27.358Z,3
2017-03-25T13:57:27.254Z,2
2017-03-25T14:07:27.288Z,1
2017-03-25T14:17:27.279Z,3
2017-03-25T14:27:27.259Z,4
2017-03-25T14:37:27.469Z,3
2017-03-25T14:47:27.229Z,3
2017-03-25T14:57:27.217Z,3
2017-03-25T15:07:27.217Z,3
2017-03-25T15:17:27.296Z,3
2017-03-25T15:27:27.293Z,3
2017-03-25T15:37:27.223Z,3
2017-03-25T15:47:27.220Z,5
2017-03-25T15:57:27.248Z,3
2017-03-25T16:07:27.242Z,5
2017-03-25T16:17:27.264Z,4
2017-03-25T16:27:27.267Z,4
2017-03-25T16:37:27.322Z,5
2017-03-25T16:47:27.231Z,3
2017-03-25T16:57:27.264Z,5
2017-03-25T17:07:27.261Z,3
2017-03-25T17:17:27.201Z,5
2017-03-25T17:27:27.342Z,4
2017-03-25T17:37:27.243Z,5
2017-03-25T17:47:27.277Z,4
2017-03-25T17:57:27.257Z,4
2017-03-25T18:07:27.251Z,5
2017-03-25T18:17:27.236Z,4
2017-03-25T18:27:27.215Z,7
2017-03-25T18:37:27.226Z,6
2017-03-25T18:47:27.233Z,6
2017-03-25T18:57:27.307Z,6
2017-03-25T19:07:27.222Z,5
2017-03-25T19:17:27.248Z,8
2017-03-25T19:27:27.251Z,9
2017-03-25T19:37:27.230Z,6
2017-03-25T19:47:27.230Z,7
2017-03-25T19:57:27.233Z,8
2017-03-25T20:07:27.218Z,6
2017-03-25T20:17:27.222Z,8
2017-03-25T20:27:27.206Z,6
2017-03-25T20:37:27.230Z,7
2017-03-25T20:47:27.228Z,5
2017-03-25T20:57:27.194Z,6
2017-03-25T21:07:27.252Z,6
2017-03-25T21:17:27.276Z,6
2017-03-25T21:27:27.226Z,4
2017-03-25T21:37:27.212Z,8
2017-03-25T21:47:27.234Z,9
2017-03-25T21:57:27.217Z,11
2017-03-25T22:07:27.209Z,7
2017-03-25T22:17:27.222Z,9
2017-03-25T22:27:27.223Z,10
2017-03-25T22:37:27.229Z,8
2017-03-25T22:47:27.223Z,9
2017-03-25T22:57:27.373Z,9
2017-03-25T23:07:27.219Z,11
2017-03-25T23:17:27.286Z,10
2017-03-25T23:27:27.226Z,9
2017-03-25T23:37:27.289Z,8
2017-03-25T23:47:27.277Z,9
2017-03-25T23:57:27.205Z,10
